createdAt,value
2022-11-29T00:01:40.625Z,12.47
2022-11-29T00:04:09.100Z,12.37
2022-11-29T00:06:37.360Z,12.40
2022-11-29T00:09:12.416Z,11.50
2022-11-29T00:12:00.574Z,12.20
2022-11-29T00:14:28.999Z,13.40
2022-11-29T00:17:02.620Z,13.40
2022-11-29T00:22:02.031Z,12.43
2022-11-29T00:24:32.403Z,14.50
2022-11-29T00:27:00.968Z,15.73
2022-11-29T00:29:30.050Z,15.93
2022-11-29T00:31:57.932Z,15.10
2022-11-29T00:34:25.790Z,14.67
2022-11-29T00:36:53.592Z,11.37
2022-11-29T00:39:21.441Z,10.97
2022-11-29T00:41:49.203Z,11.57
2022-11-29T00:44:20.405Z,12.10
2022-11-29T00:46:49.018Z,10.40
2022-11-29T00:49:17.410Z,11.13
2022-11-29T00:51:46.094Z,9.97
2022-11-29T00:54:13.961Z,9.73
2022-11-29T00:56:41.856Z,8.87
2022-11-29T00:59:09.740Z,9.70
2022-11-29T01:01:37.664Z,8.53
2022-11-29T01:04:05.455Z,9.67
2022-11-29T01:06:33.294Z,8.70
2022-11-29T01:09:01.084Z,8.57
2022-11-29T01:11:29.151Z,8.80
2022-11-29T01:14:01.854Z,9.23
2022-11-29T01:16:30.983Z,8.70
2022-11-29T01:18:58.939Z,7.43
2022-11-29T01:21:26.768Z,8.37
2022-11-29T01:23:55.362Z,6.70
2022-11-29T01:26:26.702Z,5.60
2022-11-29T01:28:56.921Z,4.03
2022-11-29T01:31:32.706Z,2.90
2022-11-29T01:34:03.072Z,2.93
2022-11-29T01:36:31.788Z,2.57
2022-11-29T01:39:01.871Z,2.10
2022-11-29T01:41:32.947Z,2.40
2022-11-29T01:44:14.227Z,2.10
2022-11-29T01:46:45.245Z,2.40
2022-11-29T01:49:29.424Z,2.43
2022-11-29T01:52:06.594Z,2.83
2022-11-29T01:54:40.976Z,2.77
2022-11-29T01:57:10.198Z,2.60
2022-11-29T01:59:44.166Z,3.10
2022-11-29T02:02:27.198Z,2.97
2022-11-29T02:05:00.348Z,3.03
2022-11-29T02:07:28.198Z,2.73
2022-11-29T02:09:56.139Z,3.30
2022-11-29T02:12:40.816Z,3.20
2022-11-29T02:15:40.173Z,3.23
2022-11-29T02:18:25.565Z,3.00
2022-11-29T02:21:33.195Z,3.27
2022-11-29T02:24:43.873Z,2.40
2022-11-29T02:27:52.243Z,2.17
2022-11-29T02:30:41.906Z,2.37
2022-11-29T02:33:50.498Z,1.60
2022-11-29T02:37:07.260Z,1.73
2022-11-29T02:39:59.344Z,1.67
2022-11-29T02:42:56.991Z,1.77
2022-11-29T02:46:05.212Z,1.83
2022-11-29T02:48:47.698Z,1.50
2022-11-29T02:51:27.571Z,1.90
2022-11-29T02:54:26.233Z,2.03
2022-11-29T02:57:01.248Z,2.17
2022-11-29T03:00:04.061Z,2.30
2022-11-29T03:03:11.378Z,2.17
2022-11-29T03:05:53.803Z,2.10
2022-11-29T03:09:07.928Z,2.70
2022-11-29T03:12:02.311Z,2.43
2022-11-29T03:15:00.068Z,2.22
2022-11-29T03:18:13.572Z,2.23
2022-11-29T03:21:18.126Z,2.57
2022-11-29T03:23:56.933Z,2.30
2022-11-29T03:26:35.977Z,2.63
2022-11-29T03:29:20.218Z,2.93
2022-11-29T03:35:27.617Z,2.27
2022-11-29T03:38:07.829Z,2.67
2022-11-29T03:40:52.726Z,3.17
2022-11-29T03:44:24.255Z,2.90
2022-11-29T03:47:07.842Z,2.83
2022-11-29T03:49:45.758Z,3.30
2022-11-29T03:52:24.391Z,3.60
2022-11-29T03:55:10.564Z,3.30
2022-11-29T03:57:40.880Z,3.30
2022-11-29T04:00:13.048Z,3.93
2022-11-29T04:03:25.067Z,3.50
2022-11-29T04:06:17.074Z,3.50
2022-11-29T04:09:31.364Z,3.57
2022-11-29T04:12:23.787Z,3.95
2022-11-29T04:15:40.974Z,4.63
2022-11-29T04:18:27.481Z,3.67
2022-11-29T04:21:24.470Z,4.57
2022-11-29T04:24:44.842Z,4.10
2022-11-29T04:27:52.888Z,3.83
2022-11-29T04:30:23.307Z,4.60
2022-11-29T04:32:51.014Z,4.47
2022-11-29T04:36:27.071Z,4.70
2022-11-29T04:39:13.770Z,4.77
2022-11-29T04:41:51.492Z,4.83
2022-11-29T04:44:36.951Z,4.50
2022-11-29T04:47:10.438Z,5.00
2022-11-29T04:50:37.738Z,5.45
2022-11-29T04:53:44.719Z,6.53
2022-11-29T04:56:45.497Z,4.50
2022-11-29T04:59:25.089Z,3.33
2022-11-29T05:02:30.319Z,3.97
2022-11-29T05:05:29.376Z,3.20
2022-11-29T05:08:35.080Z,3.90
2022-11-29T05:11:20.805Z,3.30
2022-11-29T05:13:59.044Z,3.63
2022-11-29T05:17:09.576Z,3.50
2022-11-29T05:20:08.126Z,3.20
2022-11-29T05:23:13.014Z,3.87
2022-11-29T05:28:45.610Z,4.67
2022-11-29T05:31:48.812Z,6.37
2022-11-29T05:34:45.517Z,7.30
2022-11-29T05:37:37.743Z,5.97
2022-11-29T05:40:20.763Z,6.23
2022-11-29T05:43:21.273Z,5.20
2022-11-29T05:46:29.325Z,5.17
2022-11-29T05:49:18.908Z,5.97
2022-11-29T05:52:11.639Z,5.43
2022-11-29T05:55:16.600Z,6.40
2022-11-29T05:58:30.113Z,5.70
2022-11-29T06:01:22.060Z,6.13
2022-11-29T06:04:14.992Z,5.70
2022-11-29T06:07:14.230Z,7.33
2022-11-29T06:10:00.537Z,6.27
2022-11-29T06:12:35.819Z,6.37
2022-11-29T06:15:24.625Z,6.43
2022-11-29T06:18:03.372Z,6.90
2022-11-29T06:21:00.703Z,6.20
2022-11-29T06:23:35.153Z,5.93
2022-11-29T06:26:29.251Z,5.97
2022-11-29T06:29:33.949Z,5.85
2022-11-29T06:32:10.390Z,5.60
2022-11-29T06:34:59.281Z,6.37
2022-11-29T06:37:45.059Z,5.77
2022-11-29T06:40:16.039Z,5.43
2022-11-29T06:42:44.207Z,5.40
2022-11-29T06:45:14.895Z,5.80
2022-11-29T06:47:44.198Z,5.43
2022-11-29T06:50:53.165Z,6.10
2022-11-29T06:53:23.858Z,6.47
2022-11-29T06:56:21.412Z,6.63
2022-11-29T06:59:29.128Z,5.97
2022-11-29T07:02:35.329Z,6.53
2022-11-29T07:05:36.456Z,5.87
2022-11-29T07:08:24.191Z,6.77
2022-11-29T07:10:55.644Z,8.20
2022-11-29T07:13:23.926Z,7.87
2022-11-29T07:16:25.061Z,6.83
2022-11-29T07:19:44.044Z,6.93
2022-11-29T07:22:37.797Z,8.63
2022-11-29T07:25:20.949Z,9.60
2022-11-29T07:28:38.265Z,7.07
2022-11-29T07:31:19.775Z,7.17
2022-11-29T07:34:19.915Z,6.53
2022-11-29T07:37:32.221Z,7.90
2022-11-29T07:40:19.621Z,8.20
2022-11-29T07:43:14.350Z,7.20
2022-11-29T07:45:42.287Z,7.03
2022-11-29T07:48:15.358Z,7.10
2022-11-29T07:50:44.181Z,6.25
2022-11-29T07:53:19.218Z,5.73
2022-11-29T07:55:49.230Z,6.40
2022-11-29T07:58:18.705Z,6.30
2022-11-29T08:00:46.622Z,6.60
2022-11-29T08:03:16.759Z,6.77
2022-11-29T08:05:49.116Z,6.60
2022-11-29T08:08:17.195Z,5.80
2022-11-29T08:10:45.276Z,6.47
2022-11-29T08:13:13.646Z,6.40
2022-11-29T08:15:46.834Z,6.50
2022-11-29T08:18:15.940Z,7.55
2022-11-29T08:20:43.958Z,6.97
2022-11-29T08:23:13.318Z,6.50
2022-11-29T08:25:41.625Z,6.47
2022-11-29T08:28:09.992Z,7.70
2022-11-29T08:30:37.932Z,6.27
2022-11-29T08:33:06.042Z,6.43
2022-11-29T08:35:36.024Z,7.40
2022-11-29T08:38:05.100Z,7.07
2022-11-29T08:40:32.991Z,6.30
2022-11-29T08:43:00.763Z,11.37
2022-11-29T08:45:28.625Z,6.77
2022-11-29T08:47:56.399Z,7.20
2022-11-29T08:50:24.646Z,6.97
2022-11-29T08:53:11.335Z,7.27
2022-11-29T08:55:42.852Z,7.87
2022-11-29T08:58:14.491Z,8.47
2022-11-29T09:00:46.907Z,8.40
2022-11-29T09:03:33.783Z,7.13
2022-11-29T09:06:13.494Z,8.43
2022-11-29T09:08:45.563Z,8.50
2022-11-29T09:11:23.049Z,9.20
2022-11-29T09:13:54.686Z,12.37
2022-11-29T09:16:28.703Z,12.00
2022-11-29T09:18:57.429Z,13.97
2022-11-29T09:21:27.771Z,12.03
2022-11-29T09:23:59.472Z,11.87
2022-11-29T09:26:31.041Z,11.07
2022-11-29T09:29:01.479Z,12.00
2022-11-29T09:31:31.446Z,16.70
2022-11-29T09:33:59.520Z,15.10
2022-11-29T09:36:29.539Z,11.87
2022-11-29T09:38:59.106Z,12.03
2022-11-29T09:41:54.317Z,12.93
2022-11-29T09:44:59.399Z,13.87
2022-11-29T09:47:42.096Z,13.13
2022-11-29T09:50:35.406Z,16.83
2022-11-29T09:53:30.597Z,15.33
2022-11-29T09:56:16.485Z,14.10
2022-11-29T09:58:54.196Z,15.47
2022-11-29T10:01:40.275Z,13.63
2022-11-29T10:04:19.858Z,21.83
2022-11-29T10:07:14.590Z,10.00
2022-11-29T10:09:56.508Z,17.80
2022-11-29T10:12:46.316Z,10.57
2022-11-29T10:15:29.291Z,11.80
2022-11-29T10:18:32.352Z,14.87
2022-11-29T10:21:12.771Z,13.43
2022-11-29T10:23:53.517Z,11.83
2022-11-29T10:26:23.045Z,11.77
2022-11-29T10:28:51.527Z,10.10
2022-11-29T10:31:26.872Z,10.17
2022-11-29T10:33:59.416Z,12.43
2022-11-29T10:36:50.853Z,9.90
2022-11-29T10:39:37.180Z,11.43
2022-11-29T10:42:32.815Z,10.73
2022-11-29T10:45:01.239Z,11.97
2022-11-29T10:47:29.133Z,10.43
2022-11-29T10:49:58.575Z,11.43
2022-11-29T10:52:26.450Z,11.70
2022-11-29T10:55:00.104Z,12.40
2022-11-29T10:57:27.972Z,10.00
2022-11-29T11:00:06.937Z,11.43
2022-11-29T11:02:35.983Z,11.03
2022-11-29T11:05:13.045Z,10.23
2022-11-29T11:07:41.351Z,9.80
2022-11-29T11:10:41.452Z,12.43
2022-11-29T11:13:26.985Z,12.17
2022-11-29T11:16:08.060Z,9.53
2022-11-29T11:18:37.247Z,11.40
2022-11-29T11:21:13.981Z,9.83
2022-11-29T11:24:03.064Z,11.70
2022-11-29T11:26:44.467Z,13.50
2022-11-29T11:29:20.924Z,12.97
2022-11-29T11:31:58.892Z,10.40
2022-11-29T11:34:35.726Z,11.43
2022-11-29T11:37:29.139Z,10.37
2022-11-29T11:40:26.457Z,10.57
2022-11-29T11:42:56.986Z,10.87
2022-11-29T11:45:33.510Z,13.33
2022-11-29T11:48:17.719Z,14.97
2022-11-29T11:53:33.930Z,11.53
2022-11-29T11:56:04.146Z,9.40
2022-11-29T11:58:37.794Z,10.57
2022-11-29T12:01:28.644Z,9.32
2022-11-29T12:04:04.829Z,9.50
2022-11-29T12:06:52.282Z,9.40
2022-11-29T12:09:45.963Z,8.80
2022-11-29T12:12:28.778Z,8.35
2022-11-29T12:15:04.726Z,8.27
2022-11-29T12:17:55.900Z,9.03
2022-11-29T12:20:32.640Z,7.80
2022-11-29T12:23:31.108Z,7.50
2022-11-29T12:26:56.043Z,9.00
2022-11-29T12:29:18.771Z,8.43
2022-11-29T12:32:37.871Z,7.73
2022-11-29T12:35:08.559Z,7.20
2022-11-29T12:38:00.687Z,6.90
2022-11-29T12:40:52.959Z,6.43
2022-11-29T12:44:03.699Z,6.90
2022-11-29T12:46:33.098Z,7.80
2022-11-29T12:49:15.022Z,7.23
2022-11-29T12:52:00.587Z,7.07
2022-11-29T12:54:51.408Z,6.13
2022-11-29T12:57:40.124Z,6.37
2022-11-29T13:00:19.089Z,6.37
2022-11-29T13:03:26.231Z,6.50
2022-11-29T13:06:42.099Z,6.37
2022-11-29T13:09:36.880Z,6.20
2022-11-29T13:12:35.858Z,7.13
2022-11-29T13:15:44.367Z,7.23
2022-11-29T13:18:37.016Z,6.47
2022-11-29T13:21:37.335Z,7.10
2022-11-29T13:24:22.518Z,6.73
2022-11-29T13:26:51.723Z,8.63
2022-11-29T13:29:20.724Z,7.30
2022-11-29T13:31:49.947Z,11.20
2022-11-29T13:34:42.605Z,8.40
2022-11-29T13:37:16.488Z,15.03
2022-11-29T13:40:06.505Z,9.50
2022-11-29T13:43:23.343Z,16.90
2022-11-29T13:46:08.436Z,16.93
2022-11-29T13:48:48.750Z,15.60
2022-11-29T13:51:28.565Z,10.90
2022-11-29T13:54:00.837Z,12.13
2022-11-29T13:56:49.768Z,19.63
2022-11-29T13:59:45.800Z,19.20
2022-11-29T14:02:36.764Z,15.70
2022-11-29T14:05:07.969Z,17.37
2022-11-29T14:07:56.103Z,23.03
2022-11-29T14:10:29.053Z,21.63
2022-11-29T14:12:59.927Z,10.95
2022-11-29T14:15:33.917Z,10.27
2022-11-29T14:20:58.243Z,8.53
2022-11-29T14:23:38.035Z,7.10
2022-11-29T14:26:05.815Z,7.63
2022-11-29T14:28:34.565Z,7.10
2022-11-29T14:31:04.549Z,7.70
2022-11-29T14:33:47.490Z,7.77
2022-11-29T14:36:15.148Z,7.30
2022-11-29T14:39:29.148Z,8.63
2022-11-29T14:42:19.403Z,6.27
2022-11-29T14:45:01.873Z,10.90
2022-11-29T14:47:47.452Z,13.63
2022-11-29T14:50:35.781Z,11.63
2022-11-29T14:53:07.477Z,14.67
2022-11-29T14:55:38.250Z,14.60
2022-11-29T14:58:18.207Z,9.07
2022-11-29T15:00:48.798Z,10.53
2022-11-29T15:03:16.464Z,11.00
2022-11-29T15:05:51.231Z,13.53
2022-11-29T15:09:12.972Z,9.73
2022-11-29T15:12:08.177Z,10.47
2022-11-29T15:15:09.285Z,13.53
2022-11-29T15:18:03.521Z,11.73
2022-11-29T15:21:18.175Z,10.73
2022-11-29T15:23:46.176Z,12.38
2022-11-29T15:26:20.870Z,8.57
2022-11-29T15:28:48.643Z,7.87
2022-11-29T15:31:20.851Z,18.83
2022-11-29T15:33:50.581Z,12.97
2022-11-29T15:36:24.252Z,10.60
2022-11-29T15:38:55.129Z,13.18
2022-11-29T15:41:35.601Z,14.87
2022-11-29T15:44:22.415Z,10.50
2022-11-29T15:46:50.267Z,15.47
2022-11-29T15:49:28.207Z,11.37
2022-11-29T15:52:07.731Z,14.27
2022-11-29T15:54:49.958Z,12.47
2022-11-29T15:57:30.650Z,12.23
2022-11-29T16:00:16.294Z,18.53
2022-11-29T16:03:04.257Z,13.47
2022-11-29T16:05:36.441Z,11.27
2022-11-29T16:08:14.866Z,17.60
2022-11-29T16:10:49.371Z,14.87
2022-11-29T16:13:37.068Z,16.63
2022-11-29T16:16:11.191Z,12.90
2022-11-29T16:18:41.977Z,10.40
2022-11-29T16:21:30.689Z,11.30
2022-11-29T16:24:10.273Z,8.83
2022-11-29T16:26:44.007Z,14.73
2022-11-29T16:29:41.590Z,14.57
2022-11-29T16:32:31.285Z,14.40
2022-11-29T16:35:21.439Z,15.37
2022-11-29T16:37:49.745Z,14.63
2022-11-29T16:40:30.209Z,17.60
2022-11-29T16:43:03.671Z,15.80
2022-11-29T16:45:41.685Z,14.57
2022-11-29T16:48:27.054Z,10.77
2022-11-29T16:51:10.197Z,16.77
2022-11-29T16:53:47.687Z,12.63
2022-11-29T16:56:28.134Z,17.93
2022-11-29T16:59:25.906Z,19.97
2022-11-29T17:01:49.485Z,17.00
2022-11-29T17:04:23.375Z,18.93
2022-11-29T17:06:56.473Z,21.43
2022-11-29T17:09:28.286Z,15.43
2022-11-29T17:11:59.899Z,15.17
2022-11-29T17:14:52.811Z,13.17
2022-11-29T17:17:20.684Z,12.73
2022-11-29T17:19:48.473Z,13.17
2022-11-29T17:22:16.346Z,12.70
2022-11-29T17:24:48.282Z,14.43
2022-11-29T17:27:16.746Z,15.50
2022-11-29T17:29:44.474Z,11.63
2022-11-29T17:32:12.275Z,13.20
2022-11-29T17:34:40.076Z,12.73
2022-11-29T17:37:07.938Z,11.80
2022-11-29T17:39:35.705Z,12.67
2022-11-29T17:42:03.719Z,13.73
2022-11-29T17:44:33.941Z,15.87
2022-11-29T17:47:01.731Z,19.70
2022-11-29T17:49:29.527Z,15.43
2022-11-29T17:51:57.273Z,13.83
2022-11-29T17:54:25.145Z,13.40
2022-11-29T17:56:52.897Z,12.27
2022-11-29T17:59:21.003Z,11.30
2022-11-29T18:01:49.583Z,11.97
2022-11-29T18:04:19.047Z,12.37
2022-11-29T18:06:50.179Z,12.50
2022-11-29T18:09:19.965Z,12.50
2022-11-29T18:11:50.314Z,11.23
2022-11-29T18:14:28.254Z,10.77
2022-11-29T18:16:56.481Z,10.77
2022-11-29T18:19:25.317Z,12.90
2022-11-29T18:21:53.218Z,16.00
2022-11-29T18:24:21.838Z,13.70
2022-11-29T18:26:49.807Z,14.00
2022-11-29T18:29:17.750Z,17.23
2022-11-29T18:31:46.396Z,17.43
2022-11-29T18:34:15.466Z,19.90
2022-11-29T18:36:48.730Z,24.23
2022-11-29T18:39:19.467Z,19.30
2022-11-29T18:41:49.984Z,17.60
2022-11-29T18:44:21.551Z,17.37
2022-11-29T18:46:49.469Z,16.03
2022-11-29T18:49:18.603Z,14.20
2022-11-29T18:51:47.677Z,13.37
2022-11-29T18:54:18.273Z,14.20
2022-11-29T18:56:46.771Z,13.00
2022-11-29T18:59:17.524Z,13.30
2022-11-29T19:01:48.184Z,19.03
2022-11-29T19:04:20.530Z,15.90
2022-11-29T19:06:49.339Z,13.17
2022-11-29T19:09:22.436Z,12.30
2022-11-29T19:11:50.980Z,13.05
2022-11-29T19:14:19.828Z,12.40
2022-11-29T19:16:49.662Z,13.87
2022-11-29T19:19:18.981Z,13.43
2022-11-29T19:21:47.704Z,14.07
2022-11-29T19:24:18.034Z,16.53
2022-11-29T19:26:48.174Z,15.13
2022-11-29T19:29:17.387Z,12.80
2022-11-29T19:31:45.461Z,13.27
2022-11-29T19:34:13.828Z,13.77
2022-11-29T19:36:43.715Z,12.77
2022-11-29T19:39:15.678Z,12.40
2022-11-29T19:41:47.035Z,12.87
2022-11-29T19:44:15.238Z,11.97
2022-11-29T19:46:47.078Z,12.53
2022-11-29T19:49:14.987Z,13.37
2022-11-29T19:51:43.070Z,15.93
2022-11-29T19:54:11.900Z,16.90
2022-11-29T19:56:40.230Z,12.70
2022-11-29T19:59:08.810Z,18.73
2022-11-29T20:01:42.042Z,14.20
2022-11-29T20:04:13.446Z,12.87
2022-11-29T20:06:43.082Z,15.33
2022-11-29T20:09:13.554Z,18.13
2022-11-29T20:11:41.312Z,15.00
2022-11-29T20:14:11.772Z,13.27
2022-11-29T20:16:39.585Z,11.57
2022-11-29T20:19:14.132Z,13.43
2022-11-29T20:21:48.765Z,12.50
2022-11-29T20:24:19.364Z,11.97
2022-11-29T20:26:49.428Z,13.73
2022-11-29T20:29:18.875Z,13.60
2022-11-29T20:31:50.811Z,13.90
2022-11-29T20:34:19.872Z,16.83
2022-11-29T20:37:30.428Z,13.87
2022-11-29T20:40:28.157Z,13.37
2022-11-29T20:43:22.225Z,12.67
2022-11-29T20:45:50.471Z,13.10
2022-11-29T20:48:23.425Z,12.67
2022-11-29T20:51:00.889Z,14.83
2022-11-29T20:53:43.652Z,13.97
2022-11-29T20:56:12.303Z,13.23
2022-11-29T20:58:40.394Z,12.20
2022-11-29T21:01:08.365Z,13.23
2022-11-29T21:03:36.394Z,14.03
2022-11-29T21:06:05.914Z,16.87
2022-11-29T21:08:34.315Z,15.90
2022-11-29T21:11:08.960Z,20.77
2022-11-29T21:13:37.612Z,16.03
2022-11-29T21:16:06.152Z,15.80
2022-11-29T21:18:34.563Z,21.60
2022-11-29T21:21:40.720Z,21.27
2022-11-29T21:24:28.367Z,14.60
2022-11-29T21:26:56.389Z,14.70
2022-11-29T21:29:24.666Z,14.67
2022-11-29T21:31:54.370Z,18.83
2022-11-29T21:34:22.525Z,15.53
2022-11-29T21:36:56.919Z,15.00
2022-11-29T21:39:32.544Z,13.60
2022-11-29T21:42:00.504Z,13.10
2022-11-29T21:44:28.287Z,14.63
2022-11-29T21:46:56.088Z,15.40
2022-11-29T21:49:23.867Z,13.67
2022-11-29T21:51:51.666Z,14.10
2022-11-29T21:54:19.402Z,14.07
2022-11-29T21:56:47.180Z,16.23
2022-11-29T21:59:14.973Z,14.03
2022-11-29T22:01:42.907Z,14.40
2022-11-29T22:04:10.862Z,15.73
2022-11-29T22:06:39.237Z,15.60
2022-11-29T22:09:07.765Z,18.83
2022-11-29T22:11:35.930Z,19.33
2022-11-29T22:14:16.189Z,20.60
2022-11-29T22:16:58.411Z,31.63
2022-11-29T22:19:36.192Z,19.23
2022-11-29T22:22:09.127Z,17.17
2022-11-29T22:24:38.063Z,18.60
2022-11-29T22:27:05.889Z,36.97
2022-11-29T22:29:33.630Z,24.30
2022-11-29T22:32:02.323Z,17.40
2022-11-29T22:34:30.110Z,20.47
2022-11-29T22:36:57.937Z,15.93
2022-11-29T22:39:25.735Z,16.77
2022-11-29T22:41:55.019Z,19.00
2022-11-29T22:44:26.252Z,19.03
2022-11-29T22:46:54.183Z,14.43
2022-11-29T22:49:22.810Z,18.07
2022-11-29T22:51:50.605Z,16.57
2022-11-29T22:54:18.354Z,17.37
2022-11-29T22:56:46.705Z,16.13
2022-11-29T22:59:14.560Z,20.47
2022-11-29T23:01:42.873Z,16.93
2022-11-29T23:04:12.258Z,17.90
2022-11-29T23:06:43.889Z,16.70
2022-11-29T23:09:22.310Z,19.13
2022-11-29T23:11:55.929Z,17.00
2022-11-29T23:14:24.604Z,27.27
2022-11-29T23:16:52.962Z,25.53
2022-11-29T23:19:21.216Z,20.27
2022-11-29T23:21:49.164Z,17.37
2022-11-29T23:24:17.152Z,17.83
2022-11-29T23:26:46.906Z,17.10
2022-11-29T23:29:19.810Z,16.50
2022-11-29T23:31:50.159Z,16.77
2022-11-29T23:34:17.972Z,18.43
2022-11-29T23:36:51.130Z,16.00
2022-11-29T23:39:20.930Z,17.87
2022-11-29T23:41:48.691Z,19.07
2022-11-29T23:44:16.440Z,21.87
2022-11-29T23:46:44.213Z,20.27
2022-11-29T23:49:12.221Z,20.73
2022-11-29T23:51:40.005Z,21.50
2022-11-29T23:54:07.913Z,16.70
2022-11-29T23:56:35.776Z,19.33
2022-11-29T23:59:03.608Z,17.07
